Time;durP1;ratioP1;P1;durP2;ratioP2;P2;SDS_P1;SDS_P2;PMS_P1;PMS_P2;Temp;Humidity;BMP_temperature;BMP_pressure;BME280_temperature;BME280_humidity;BME280_pressure;Samples;Min_cycle;Max_cycle;Signal;HPM_P1;HPM_P2
2023/03/28 00:00:24;;;;;;;;;;;;;;;15.86;48.54;102638.91;2034078;29;20018;-57
2023/03/28 00:01:27;;;;;;;;;;;;;;;15.86;48.38;102636.19;2026648;29;20378;-57
2023/03/28 00:02:28;;;;;;;;;;;;;;;15.85;48.40;102640.84;2031954;29;19938;-57
2023/03/28 00:03:34;;;;;;;;;;;;;;;15.86;48.61;102642.44;2037424;29;19966;-57
2023/03/28 00:04:40;;;;;;;;;;;;;;;15.85;48.54;102640.84;2032080;29;20034;-55
2023/03/28 00:05:43;;;;;;;;;;;;;;;15.85;48.46;102640.03;2036105;29;19931;-56
2023/03/28 00:06:46;;;;;;;;;;;;;;;15.85;48.44;102645.50;2029076;29;19946;-57
2023/03/28 00:07:48;;;;;;;;;;;;;;;15.84;48.51;102636.50;2031711;29;19974;-57
2023/03/28 00:08:50;;;;;;;;;;;;;;;15.84;48.50;102639.25;2027692;29;19927;-57
2023/03/28 00:09:52;;;;;;;;;;;;;;;15.84;48.23;102644.69;2023982;29;19938;-58
2023/03/28 00:11:01;;;;;;;;;;;;;;;15.84;48.57;102646.63;2031732;29;19923;-56
2023/03/28 00:12:03;;;;;;;;;;;;;;;15.84;48.48;102643.91;2032527;29;19975;-57
2023/03/28 00:13:06;;;;;;;;;;;;;;;15.84;48.39;102652.84;2035723;29;20661;-57
2023/03/28 00:14:07;;;;;;;;;;;;;;;15.83;48.59;102645.81;2033213;29;19927;-56
2023/03/28 00:15:10;;;;;;;;;;;;;;;15.82;48.51;102643.44;2034507;29;19946;-57
2023/03/28 00:16:13;;;;;;;;;;;;;;;15.83;48.49;102653.19;2035856;29;19977;-57
2023/03/28 00:17:16;;;;;;;;;;;;;;;15.82;48.58;102649.69;2034190;29;19957;-57
2023/03/28 00:18:18;;;;;;;;;;;;;;;15.82;48.39;102657.88;2032841;29;19934;-57
2023/03/28 00:19:21;;;;;;;;;;;;;;;15.81;48.52;102644.56;2036927;29;19934;-57
2023/03/28 00:20:24;;;;;;;;;;;;;;;15.82;48.54;102651.59;2036968;29;19953;-57
2023/03/28 00:21:28;;;;;;;;;;;;;;;15.82;48.52;102652.41;2029486;29;19934;-57
2023/03/28 00:22:30;;;;;;;;;;;;;;;15.81;48.41;102650.81;2027609;29;19931;-57
2023/03/28 00:23:34;;;;;;;;;;;;;;;15.82;48.39;102646.16;2034942;29;19922;-57
2023/03/28 00:24:37;;;;;;;;;;;;;;;15.80;48.54;102645.69;2031468;29;20385;-56
2023/03/28 00:25:40;;;;;;;;;;;;;;;15.80;48.44;102648.41;2038304;29;20242;-58
2023/03/28 00:26:44;;;;;;;;;;;;;;;15.79;48.44;102644.88;2033341;29;19938;-56
2023/03/28 00:27:46;;;;;;;;;;;;;;;15.79;48.44;102647.59;2036090;29;19930;-57
2023/03/28 00:28:48;;;;;;;;;;;;;;;15.78;48.39;102646.03;2024652;29;20417;-57
2023/03/28 00:29:50;;;;;;;;;;;;;;;15.79;48.49;102647.59;2024292;29;19927;-57
2023/03/28 00:30:53;;;;;;;;;;;;;;;15.78;48.57;102645.22;2039345;29;20041;-58
2023/03/28 00:31:55;;;;;;;;;;;;;;;15.78;48.53;102645.22;2031126;29;20026;-56
2023/03/28 00:32:58;;;;;;;;;;;;;;;15.77;48.63;102647.16;2028465;29;20014;-56
2023/03/28 00:33:59;;;;;;;;;;;;;;;15.79;48.38;102646.81;2026600;29;19988;-56
2023/03/28 00:35:02;;;;;;;;;;;;;;;15.78;48.38;102654.19;2034207;29;20298;-56
2023/03/28 00:36:09;;;;;;;;;;;;;;;15.77;48.36;102649.88;2039076;29;19977;-57
2023/03/28 00:37:16;;;;;;;;;;;;;;;15.76;48.34;102653.72;2035895;29;19927;-56
2023/03/28 00:38:17;;;;;;;;;;;;;;;15.76;48.57;102661.09;2036654;29;19926;-57
2023/03/28 00:39:20;;;;;;;;;;;;;;;15.76;48.35;102648.28;2034226;29;19934;-57
2023/03/28 00:40:24;;;;;;;;;;;;;;;15.75;48.54;102654.84;2029165;29;19931;-57
2023/03/28 00:41:29;;;;;;;;;;;;;;;15.76;48.56;102656.44;2023342;29;19923;-57
2023/03/28 00:42:31;;;;;;;;;;;;;;;15.77;48.45;102649.06;2030550;29;20397;-57
2023/03/28 00:43:36;;;;;;;;;;;;;;;15.75;48.34;102651.31;2032183;29;20396;-57
2023/03/28 00:44:45;;;;;;;;;;;;;;;15.75;48.46;102652.13;2033829;29;19937;-57
2023/03/28 00:45:47;;;;;;;;;;;;;;;15.75;48.57;102659.50;2033472;29;19926;-57
2023/03/28 00:47:03;;;;;;;;;;;;;;;15.74;48.58;102664.16;2033002;29;19927;-57
2023/03/28 00:48:12;;;;;;;;;;;;;;;15.73;48.62;102665.28;2034872;29;19927;-56
2023/03/28 00:49:20;;;;;;;;;;;;;;;15.74;48.47;102661.44;2028619;29;19927;-57
2023/03/28 00:50:26;;;;;;;;;;;;;;;15.74;48.54;102657.91;2026207;29;20376;-57
2023/03/28 00:51:30;;;;;;;;;;;;;;;15.73;48.47;102659.81;2032612;29;20023;-56
2023/03/28 00:52:37;;;;;;;;;;;;;;;15.74;48.48;102649.75;2030848;29;19927;-57
2023/03/28 00:53:41;;;;;;;;;;;;;;;15.72;48.49;102658.25;2036577;29;20012;-57
2023/03/28 00:54:44;;;;;;;;;;;;;;;15.72;48.52;102658.25;2036421;29;19927;-56
2023/03/28 00:55:48;;;;;;;;;;;;;;;15.73;48.54;102648.16;2032237;29;19950;-57
2023/03/28 00:56:54;;;;;;;;;;;;;;;15.72;48.50;102654.72;2029631;29;19981;-56
2023/03/28 00:57:56;;;;;;;;;;;;;;;15.72;48.59;102657.44;2031796;29;20373;-56
2023/03/28 00:59:00;;;;;;;;;;;;;;;15.72;48.42;102658.25;2035897;29;19934;-57
2023/03/28 01:00:05;;;;;;;;;;;;;;;15.71;48.43;102653.13;2038756;29;19929;-58
2023/03/28 01:01:09;;;;;;;;;;;;;;;15.72;48.48;102657.44;2034345;29;19954;-57
2023/03/28 01:02:12;;;;;;;;;;;;;;;15.71;48.41;102653.94;2036098;29;19930;-57
2023/03/28 01:03:17;;;;;;;;;;;;;;;15.72;48.52;102646.53;2028172;29;19934;-57
2023/03/28 01:04:21;;;;;;;;;;;;;;;15.70;48.38;102646.88;2025455;29;20406;-57
2023/03/28 01:05:26;;;;;;;;;;;;;;;15.70;48.53;102644.16;2037622;29;19923;-56
2023/03/28 01:06:31;;;;;;;;;;;;;;;15.69;48.44;102637.13;2036623;29;20415;-58
2023/03/28 01:07:38;;;;;;;;;;;;;;;15.71;48.40;102642.22;2030767;29;19938;-57
2023/03/28 01:08:42;;;;;;;;;;;;;;;15.69;48.64;102639.84;2030366;29;20479;-57
2023/03/28 01:09:46;;;;;;;;;;;;;;;15.69;48.54;102637.13;2031920;29;19927;-57
2023/03/28 01:10:48;;;;;;;;;;;;;;;15.69;48.48;102642.56;2022648;29;19927;-57
2023/03/28 01:11:51;;;;;;;;;;;;;;;15.69;48.39;102642.56;2021187;29;19931;-57
2023/03/28 01:12:54;;;;;;;;;;;;;;;15.69;48.35;102653.47;2028717;29;19931;-56
2023/03/28 01:13:58;;;;;;;;;;;;;;;15.69;48.42;102653.47;2028207;29;19923;-57
2023/03/28 01:15:03;;;;;;;;;;;;;;;15.69;48.53;102652.66;2023599;29;19931;-55
2023/03/28 01:16:16;;;;;;;;;;;;;;;15.69;48.49;102641.75;2024876;29;20385;-57
2023/03/28 01:17:18;;;;;;;;;;;;;;;15.68;48.43;102646.41;2027344;29;20324;-56
2023/03/28 01:18:22;;;;;;;;;;;;;;;15.68;48.50;102651.06;2029240;29;19927;-57
2023/03/28 01:19:32;;;;;;;;;;;;;;;15.67;48.61;102655.72;2035381;29;19938;-58
2023/03/28 01:20:41;;;;;;;;;;;;;;;15.68;48.51;102645.63;2034395;29;19931;-55
2023/03/28 01:21:56;;;;;;;;;;;;;;;15.68;48.60;102651.06;2032571;29;20025;-61
2023/03/28 01:23:20;;;;;;;;;;;;;;;15.66;48.41;102654.13;2027439;29;19926;-57
2023/03/28 01:24:40;;;;;;;;;;;;;;;15.67;48.53;102646.72;2032235;29;20054;-57
2023/03/28 01:25:49;;;;;;;;;;;;;;;15.66;48.62;102640.50;2029845;29;19974;-56
2023/03/28 01:26:53;;;;;;;;;;;;;;;15.66;48.55;102642.44;2023918;29;20393;-63
2023/03/28 01:28:01;;;;;;;;;;;;;;;15.66;48.82;102648.69;2017386;29;20019;-57
2023/03/28 01:29:36;;;;;;;;;;;;;;;15.66;48.52;102645.97;2024074;29;19984;-56
2023/03/28 01:30:53;;;;;;;;;;;;;;;15.65;48.47;102644.34;2020924;29;20329;-56
2023/03/28 01:32:51;;;;;;;;;;;;;;;15.64;48.47;102642.75;2033718;29;19926;-56
2023/03/28 01:34:17;;;;;;;;;;;;;;;15.64;48.40;102636.50;2034652;29;20009;-57
2023/03/28 01:35:35;;;;;;;;;;;;;;;15.65;48.65;102635.41;2036629;29;19960;-56
2023/03/28 01:36:48;;;;;;;;;;;;;;;15.64;48.51;102650.94;2000162;29;19924;-57
2023/03/28 01:37:55;;;;;;;;;;;;;;;15.64;48.50;102636.50;2025984;29;19927;-57
2023/03/28 01:38:58;;;;;;;;;;;;;;;15.64;48.37;102644.69;2034971;29;19924;-57
2023/03/28 01:40:18;;;;;;;;;;;;;;;15.64;48.54;102642.75;2029629;29;20008;-55
2023/03/28 01:41:34;;;;;;;;;;;;;;;15.63;48.37;102635.72;2031249;29;20373;-57
2023/03/28 01:42:43;;;;;;;;;;;;;;;15.64;48.47;102641.94;2029575;29;20515;-57
2023/03/28 01:43:50;;;;;;;;;;;;;;;15.63;48.52;102632.19;2022954;29;19982;-56
2023/03/28 01:44:59;;;;;;;;;;;;;;;15.62;48.48;102634.13;2022814;29;19933;-57
2023/03/28 01:46:05;;;;;;;;;;;;;;;15.62;48.62;102627.88;2033538;29;19929;-56
2023/03/28 01:47:12;;;;;;;;;;;;;;;15.62;48.38;102639.56;2032992;29;20021;-55
2023/03/28 01:48:20;;;;;;;;;;;;;;;15.62;48.56;102630.63;2023565;29;19938;-57
2023/03/28 01:49:32;;;;;;;;;;;;;;;15.62;48.36;102636.84;2022741;29;20304;-57
2023/03/28 01:50:38;;;;;;;;;;;;;;;15.61;48.53;102629.81;2035229;29;19975;-57
2023/03/28 01:51:47;;;;;;;;;;;;;;;15.60;48.46;102641.81;2032358;29;20304;-57
2023/03/28 01:52:54;;;;;;;;;;;;;;;15.61;48.46;102640.69;2035662;29;20054;-57
2023/03/28 01:53:59;;;;;;;;;;;;;;;15.61;48.81;102634.44;2037828;29;20009;-57
2023/03/28 01:55:05;;;;;;;;;;;;;;;15.61;48.70;102645.34;2023572;29;19954;-57
2023/03/28 01:56:12;;;;;;;;;;;;;;;15.61;48.34;102640.69;2021344;29;19931;-56
2023/03/28 01:57:18;;;;;;;;;;;;;;;15.61;48.66;102645.34;2031066;29;20680;-57
2023/03/28 01:58:28;;;;;;;;;;;;;;;15.60;48.50;102643.75;2038812;29;20340;-55
2023/03/28 01:59:42;;;;;;;;;;;;;;;15.60;48.35;102638.31;2036918;29;19923;-55
2023/03/28 02:01:04;;;;;;;;;;;;;;;15.61;48.59;102639.91;2031039;29;19927;-55
2023/03/28 02:02:09;;;;;;;;;;;;;;;15.60;48.62;102644.53;2020053;29;20481;-56
2023/03/28 02:03:17;;;;;;;;;;;;;;;15.59;48.44;102642.94;2016708;29;20421;-57
2023/03/28 02:04:34;;;;;;;;;;;;;;;15.59;48.50;102637.50;2026221;29;20033;-57
2023/03/28 02:05:37;;;;;;;;;;;;;;;15.59;48.46;102642.13;2031466;29;20476;-57
2023/03/28 02:06:45;;;;;;;;;;;;;;;15.59;48.65;102636.69;2028091;29;19931;-56
2023/03/28 02:07:53;;;;;;;;;;;;;;;15.57;48.41;102637.03;2025934;29;19927;-57
2023/03/28 02:09:09;;;;;;;;;;;;;;;15.58;48.54;102638.63;2027735;29;19923;-57
2023/03/28 02:10:40;;;;;;;;;;;;;;;15.58;48.73;102627.75;2025761;29;19935;-57
2023/03/28 02:12:00;;;;;;;;;;;;;;;15.57;48.37;102637.03;2028104;29;20317;-61
2023/03/28 02:13:18;;;;;;;;;;;;;;;15.57;48.63;102642.47;2025694;29;19927;-59
2023/03/28 02:14:29;;;;;;;;;;;;;;;15.57;48.37;102639.75;2035468;29;19939;-60
2023/03/28 02:15:59;;;;;;;;;;;;;;;15.57;48.52;102642.47;2035038;29;19958;-60
2023/03/28 02:17:22;;;;;;;;;;;;;;;15.56;48.44;102632.72;2035451;29;19927;-60
2023/03/28 02:18:47;;;;;;;;;;;;;;;15.56;48.55;102632.72;2031428;29;20240;-60
2023/03/28 02:20:27;;;;;;;;;;;;;;;15.55;48.43;102631.13;2019324;29;19988;-64
2023/03/28 02:21:53;;;;;;;;;;;;;;;15.56;48.34;102635.44;2032104;29;19927;-59
2023/03/28 02:23:18;;;;;;;;;;;;;;;15.56;48.52;102634.63;2027367;29;19927;-59
2023/03/28 02:24:38;;;;;;;;;;;;;;;15.55;48.54;102633.84;2034241;29;19922;-59
2023/03/28 02:25:50;;;;;;;;;;;;;;;15.56;48.61;102635.44;2036828;29;20320;-59
2023/03/28 02:27:15;;;;;;;;;;;;;;;15.56;48.47;102631.91;2036139;29;20384;-58
2023/03/28 02:28:43;;;;;;;;;;;;;;;15.55;48.57;102630.34;2036467;29;19931;-59
2023/03/28 02:30:10;;;;;;;;;;;;;;;15.54;48.54;102632.25;2035893;29;19926;-58
2023/03/28 02:31:13;;;;;;;;;;;;;;;15.54;48.54;102632.25;2036685;29;19969;-59
2023/03/28 02:32:16;;;;;;;;;;;;;;;15.54;48.50;102632.25;2036806;29;20399;-59
2023/03/28 02:33:32;;;;;;;;;;;;;;;15.54;48.50;102628.75;2029278;29;19927;-59
2023/03/28 02:34:35;;;;;;;;;;;;;;;15.54;48.39;102634.97;2030248;29;19934;-59
2023/03/28 02:35:45;;;;;;;;;;;;;;;15.54;48.40;102631.47;2038339;29;20881;-59
2023/03/28 02:36:51;;;;;;;;;;;;;;;15.53;48.57;102633.38;2032428;29;20018;-59
2023/03/28 02:38:00;;;;;;;;;;;;;;;15.54;48.53;102626.81;2032008;29;19981;-59
2023/03/28 02:39:21;;;;;;;;;;;;;;;15.54;48.44;102632.25;2040776;29;20369;-56
2023/03/28 02:40:45;;;;;;;;;;;;;;;15.52;48.57;102631.78;2033259;29;19927;-59
2023/03/28 02:41:52;;;;;;;;;;;;;;;15.52;48.62;102625.53;2024591;29;20325;-59
2023/03/28 02:43:12;;;;;;;;;;;;;;;15.53;48.45;102627.13;2029631;29;20380;-58
2023/03/28 02:44:23;;;;;;;;;;;;;;;15.52;48.61;102631.00;2006030;29;20391;-59
2023/03/28 02:45:49;;;;;;;;;;;;;;;15.52;48.57;102629.06;2022747;29;19978;-60
2023/03/28 02:46:54;;;;;;;;;;;;;;;15.52;48.41;102631.00;2027711;29;20380;-59
2023/03/28 02:48:05;;;;;;;;;;;;;;;15.51;48.46;102627.47;2032975;29;19991;-59
2023/03/28 02:49:15;;;;;;;;;;;;;;;15.52;48.48;102636.44;2031500;29;19927;-58
2023/03/28 02:50:26;;;;;;;;;;;;;;;15.51;48.53;102630.19;2029919;29;20026;-59
2023/03/28 02:51:33;;;;;;;;;;;;;;;15.51;48.54;102635.63;2028784;29;19927;-60
2023/03/28 02:52:50;;;;;;;;;;;;;;;15.51;48.62;102634.81;2031420;29;19978;-60
2023/03/28 02:53:57;;;;;;;;;;;;;;;15.50;48.37;102634.03;2025166;29;19934;-59
2023/03/28 02:55:04;;;;;;;;;;;;;;;15.51;48.64;102635.63;2033543;29;19973;-58
2023/03/28 02:56:28;;;;;;;;;;;;;;;15.50;48.44;102634.03;2026991;29;20339;-57
2023/03/28 02:57:45;;;;;;;;;;;;;;;15.50;48.14;102625.88;2032315;29;19927;-60
2023/03/28 02:58:50;;;;;;;;;;;;;;;15.50;48.39;102633.25;2024554;29;20400;-59
2023/03/28 02:59:54;;;;;;;;;;;;;;;15.50;48.53;102628.59;2024681;29;20472;-58
2023/03/28 03:00:56;;;;;;;;;;;;;;;15.50;48.50;102623.16;2030000;29;19923;-59
2023/03/28 03:01:59;;;;;;;;;;;;;;;15.50;48.30;102630.50;2030270;29;19997;-59
2023/03/28 03:03:02;;;;;;;;;;;;;;;15.50;48.43;102633.25;2032596;29;20348;-59
2023/03/28 03:04:06;;;;;;;;;;;;;;;15.49;48.42;102627.00;2032868;29;19927;-59
2023/03/28 03:05:08;;;;;;;;;;;;;;;15.49;48.55;102623.50;2036522;29;19989;-59
2023/03/28 03:06:11;;;;;;;;;;;;;;;15.49;48.41;102626.22;2035742;29;19923;-58
2023/03/28 03:07:13;;;;;;;;;;;;;;;15.49;48.54;102623.50;2029306;29;19973;-59
2023/03/28 03:08:16;;;;;;;;;;;;;;;15.49;48.38;102621.53;2033112;29;20048;-59
2023/03/28 03:09:21;;;;;;;;;;;;;;;15.48;48.58;102625.41;2025820;29;20001;-57
2023/03/28 03:10:24;;;;;;;;;;;;;;;15.48;48.54;102621.88;2034735;29;19927;-59
2023/03/28 03:11:27;;;;;;;;;;;;;;;15.48;48.51;102624.59;2020245;29;19927;-59
2023/03/28 03:12:30;;;;;;;;;;;;;;;15.48;48.40;102625.41;2018371;29;19927;-59
2023/03/28 03:13:32;;;;;;;;;;;;;;;15.47;48.51;102623.81;2031931;29;19923;-56
2023/03/28 03:14:37;;;;;;;;;;;;;;;15.48;48.44;102628.13;2031348;29;19962;-59
2023/03/28 03:16:06;;;;;;;;;;;;;;;15.47;48.46;102615.66;2037073;29;19922;-59
2023/03/28 03:17:08;;;;;;;;;;;;;;;15.47;48.55;102617.56;2028648;29;20278;-59
2023/03/28 03:18:12;;;;;;;;;;;;;;;15.47;48.51;102623.00;2023456;29;19924;-59
2023/03/28 03:19:14;;;;;;;;;;;;;;;15.47;48.58;102615.66;2030713;29;19955;-59
2023/03/28 03:20:17;;;;;;;;;;;;;;;15.47;48.52;102617.56;2034719;29;19923;-58
2023/03/28 03:21:20;;;;;;;;;;;;;;;15.47;48.72;102623.81;2031785;29;20354;-58
2023/03/28 03:22:23;;;;;;;;;;;;;;;15.47;48.33;102629.25;2022682;29;19982;-58
2023/03/28 03:23:25;;;;;;;;;;;;;;;15.46;48.42;102622.19;2022652;29;20421;-59
2023/03/28 03:24:33;;;;;;;;;;;;;;;15.46;48.61;102627.66;2030142;29;19927;-59
2023/03/28 03:25:35;;;;;;;;;;;;;;;15.47;48.44;102625.72;2031075;29;20278;-59
2023/03/28 03:26:47;;;;;;;;;;;;;;;15.46;48.61;102626.88;2028928;29;19927;-58
2023/03/28 03:27:50;;;;;;;;;;;;;;;15.46;48.38;102624.94;2022032;29;20400;-59
2023/03/28 03:28:56;;;;;;;;;;;;;;;15.46;48.44;102626.88;2028450;29;19961;-59
2023/03/28 03:30:00;;;;;;;;;;;;;;;15.45;48.60;102626.06;2016108;29;19929;-60
2023/03/28 03:31:13;;;;;;;;;;;;;;;15.45;48.57;102623.34;2023068;29;20405;-59
2023/03/28 03:32:37;;;;;;;;;;;;;;;15.44;48.40;102627.19;2020289;29;19982;-59
2023/03/28 03:33:40;;;;;;;;;;;;;;;15.45;48.37;102620.63;2024164;29;20018;-58
2023/03/28 03:34:44;;;;;;;;;;;;;;;15.44;48.57;102621.75;2031303;29;19927;-58
2023/03/28 03:35:46;;;;;;;;;;;;;;;15.44;48.61;102624.47;2024428;29;19926;-58
2023/03/28 03:36:51;;;;;;;;;;;;;;;15.44;48.29;102621.75;2022607;29;20266;-59
2023/03/28 03:37:53;;;;;;;;;;;;;;;15.43;48.36;102625.59;2014250;29;20605;-57
2023/03/28 03:38:56;;;;;;;;;;;;;;;15.44;48.60;102624.47;2024837;29;20390;-59
2023/03/28 03:39:59;;;;;;;;;;;;;;;15.44;48.66;102624.47;2033303;29;20435;-57
2023/03/28 03:41:06;;;;;;;;;;;;;;;15.43;48.60;102622.88;2008612;29;19983;-59
2023/03/28 03:42:08;;;;;;;;;;;;;;;15.44;48.48;102627.19;2015676;29;20362;-59
2023/03/28 03:43:11;;;;;;;;;;;;;;;15.43;48.65;102628.31;2027335;29;20349;-60
2023/03/28 03:44:14;;;;;;;;;;;;;;;15.43;48.65;102620.16;2027696;29;20364;-58
2023/03/28 03:45:16;;;;;;;;;;;;;;;15.43;48.67;102616.66;2026199;29;20034;-58
2023/03/28 03:46:18;;;;;;;;;;;;;;;15.42;48.66;102621.28;2036116;29;20843;-58
2023/03/28 03:47:23;;;;;;;;;;;;;;;15.43;48.40;102617.41;2024698;29;21301;-60
2023/03/28 03:48:24;;;;;;;;;;;;;;;15.43;48.55;102613.94;2025968;29;19934;-60
2023/03/28 03:49:32;;;;;;;;;;;;;;;15.41;48.29;102619.69;2034467;29;19923;-58
2023/03/28 03:50:37;;;;;;;;;;;;;;;15.42;48.51;102615.03;2023399;29;20451;-59
2023/03/28 03:51:46;;;;;;;;;;;;;;;15.42;48.45;102618.56;2024817;29;19924;-59
2023/03/28 03:52:50;;;;;;;;;;;;;;;15.43;48.36;102622.09;2033500;29;20002;-59
2023/03/28 03:53:58;;;;;;;;;;;;;;;15.40;48.42;102626.25;2021951;29;20408;-60
2023/03/28 03:55:10;;;;;;;;;;;;;;;15.41;48.56;102627.88;2023067;29;20305;-58
2023/03/28 03:56:15;;;;;;;;;;;;;;;15.41;48.29;102622.41;2025274;29;19934;-57
2023/03/28 03:57:26;;;;;;;;;;;;;;;15.40;48.39;102628.97;2022436;29;19923;-59
2023/03/28 03:58:33;;;;;;;;;;;;;;;15.40;48.63;102628.97;2029314;29;19930;-58
2023/03/28 03:59:40;;;;;;;;;;;;;;;15.40;48.36;102631.69;2023915;29;19927;-57
2023/03/28 04:00:47;;;;;;;;;;;;;;;15.40;48.30;102633.59;2016576;29;20015;-59
2023/03/28 04:02:07;;;;;;;;;;;;;;;15.40;48.55;102628.97;2022765;29;19958;-58
2023/03/28 04:03:15;;;;;;;;;;;;;;;15.40;48.62;102628.97;2023539;29;19974;-59
2023/03/28 04:04:26;;;;;;;;;;;;;;;15.39;48.39;102627.38;2027493;29;20018;-59
2023/03/28 04:05:40;;;;;;;;;;;;;;;15.39;48.37;102627.38;2025890;29;20480;-59
2023/03/28 04:06:45;;;;;;;;;;;;;;;15.40;48.52;102634.41;2014308;29;19931;-58
2023/03/28 04:07:48;;;;;;;;;;;;;;;15.39;48.34;102635.56;2015841;29;20061;-59
2023/03/28 04:09:00;;;;;;;;;;;;;;;15.39;48.54;102635.56;2031448;29;20415;-59
2023/03/28 04:10:24;;;;;;;;;;;;;;;15.39;48.41;102638.28;2031432;29;19927;-56
2023/03/28 04:11:26;;;;;;;;;;;;;;;15.39;48.62;102638.28;2034544;29;20002;-59
2023/03/28 04:12:29;;;;;;;;;;;;;;;15.39;48.38;102642.91;2028158;29;20372;-59
2023/03/28 04:13:31;;;;;;;;;;;;;;;15.38;48.53;102644.81;2025317;29;20397;-59
2023/03/28 04:14:36;;;;;;;;;;;;;;;15.39;48.45;102643.72;2029552;29;19923;-59
2023/03/28 04:16:19;;;;;;;;;;;;;;;15.39;48.46;102648.34;2032869;29;19930;-59
2023/03/28 04:17:33;;;;;;;;;;;;;;;15.39;48.61;102649.16;2023499;29;19924;-59
2023/03/28 04:18:49;;;;;;;;;;;;;;;15.38;48.59;102653.00;2025504;29;20428;-59
2023/03/28 04:19:54;;;;;;;;;;;;;;;15.38;48.54;102647.56;2030209;29;20454;-58
2023/03/28 04:21:00;;;;;;;;;;;;;;;15.37;48.66;102648.66;2030829;29;20713;-56
2023/03/28 04:22:17;;;;;;;;;;;;;;;15.37;48.36;102645.94;2027519;29;19976;-58
2023/03/28 04:23:25;;;;;;;;;;;;;;;15.37;48.31;102640.50;2013057;29;20397;-58
2023/03/28 04:24:27;;;;;;;;;;;;;;;15.37;48.57;102651.38;2014725;29;19948;-59
2023/03/28 04:25:48;;;;;;;;;;;;;;;15.38;48.42;102647.56;2027252;29;19927;-57
2023/03/28 04:26:56;;;;;;;;;;;;;;;15.37;48.31;102651.38;2029083;29;20313;-59
2023/03/28 04:28:00;;;;;;;;;;;;;;;15.37;48.34;102650.56;2032228;29;20038;-58
2023/03/28 04:29:05;;;;;;;;;;;;;;;15.36;48.54;102652.50;2022173;29;20397;-60
2023/03/28 04:30:12;;;;;;;;;;;;;;;15.36;48.47;102655.25;2020028;29;20317;-58
2023/03/28 04:31:38;;;;;;;;;;;;;;;15.37;48.44;102654.09;2009902;29;19938;-60
2023/03/28 04:33:10;;;;;;;;;;;;;;;15.37;48.32;102656.81;2024763;29;19935;-58
2023/03/28 04:34:14;;;;;;;;;;;;;;;15.35;48.47;102642.72;2020030;29;19959;-59
2023/03/28 04:35:34;;;;;;;;;;;;;;;15.36;48.64;102655.25;2022530;29;20309;-57
2023/03/28 04:36:39;;;;;;;;;;;;;;;15.35;48.40;102653.63;2025379;29;19931;-59
2023/03/28 04:37:42;;;;;;;;;;;;;;;15.36;48.48;102657.16;2028173;29;20100;-59
2023/03/28 04:38:44;;;;;;;;;;;;;;;15.36;48.33;102666.13;2027128;29;19986;-58
2023/03/28 04:40:10;;;;;;;;;;;;;;;15.36;48.56;102655.25;2029988;29;20537;-57
2023/03/28 04:41:37;;;;;;;;;;;;;;;15.36;48.63;102654.44;2004390;29;20012;-59
2023/03/28 04:43:03;;;;;;;;;;;;;;;15.36;48.53;102662.59;2024746;29;19966;-60
2023/03/28 04:44:08;;;;;;;;;;;;;;;15.35;48.55;102659.06;2031166;29;19928;-59
2023/03/28 04:45:18;;;;;;;;;;;;;;;15.35;48.55;102653.63;2022595;29;20006;-60
2023/03/28 04:46:22;;;;;;;;;;;;;;;15.35;48.69;102656.34;2023691;29;20301;-63
2023/03/28 04:47:25;;;;;;;;;;;;;;;15.35;48.66;102661.78;2023594;29;19978;-58
2023/03/28 04:48:26;;;;;;;;;;;;;;;15.35;48.76;102658.28;2023323;29;19931;-60
2023/03/28 04:49:29;;;;;;;;;;;;;;;15.35;48.66;102658.28;2030335;29;19934;-57
2023/03/28 04:50:31;;;;;;;;;;;;;;;15.34;48.40;102657.47;2028698;29;19924;-57
2023/03/28 04:51:36;;;;;;;;;;;;;;;15.33;48.55;102653.16;2026072;29;20365;-60
2023/03/28 04:52:38;;;;;;;;;;;;;;;15.34;48.47;102659.41;2018523;29;20518;-58
2023/03/28 04:53:41;;;;;;;;;;;;;;;15.35;48.77;102652.84;2022281;29;19958;-59
2023/03/28 04:55:03;;;;;;;;;;;;;;;15.34;48.50;102656.66;2021088;29;20345;-59
2023/03/28 04:56:07;;;;;;;;;;;;;;;15.34;48.55;102662.91;2032883;29;20385;-59
2023/03/28 04:57:11;;;;;;;;;;;;;;;15.35;48.55;102661.00;2026091;29;20600;-61
2023/03/28 04:58:17;;;;;;;;;;;;;;;15.34;48.53;102659.41;2016632;29;20402;-59
2023/03/28 04:59:20;;;;;;;;;;;;;;;15.34;48.57;102665.66;2020688;29;20706;-59
2023/03/28 05:00:22;;;;;;;;;;;;;;;15.34;48.59;102665.66;2023492;29;19927;-56
2023/03/28 05:01:36;;;;;;;;;;;;;;;15.34;48.46;102662.91;2026054;29;19927;-59
2023/03/28 05:02:58;;;;;;;;;;;;;;;15.34;48.20;102656.66;2029998;29;20017;-59
2023/03/28 05:04:04;;;;;;;;;;;;;;;15.34;48.49;102665.66;2022954;29;19924;-59
2023/03/28 05:05:06;;;;;;;;;;;;;;;15.34;48.29;102665.66;2011875;29;20044;-60
2023/03/28 05:06:09;;;;;;;;;;;;;;;15.35;48.49;102658.28;2018300;29;20450;-60
2023/03/28 05:07:12;;;;;;;;;;;;;;;15.35;48.64;102675.41;2032890;29;19956;-60
2023/03/28 05:08:15;;;;;;;;;;;;;;;15.35;48.64;102661.78;2032743;29;19927;-60
2023/03/28 05:09:17;;;;;;;;;;;;;;;15.36;48.54;102665.31;2030873;29;19927;-59
2023/03/28 05:10:19;;;;;;;;;;;;;;;15.36;48.58;102671.56;2028570;29;19991;-61
2023/03/28 05:11:23;;;;;;;;;;;;;;;15.36;48.43;102670.75;2030216;29;20369;-60
2023/03/28 05:12:27;;;;;;;;;;;;;;;15.36;48.69;102665.31;2027582;29;20424;-56
2023/03/28 05:13:35;;;;;;;;;;;;;;;15.36;48.62;102666.13;2025904;29;19927;-56
2023/03/28 05:15:00;;;;;;;;;;;;;;;15.36;48.65;102663.41;2023004;29;19924;-55
2023/03/28 05:16:03;;;;;;;;;;;;;;;15.36;48.52;102670.75;2024341;29;20489;-56
2023/03/28 05:17:32;;;;;;;;;;;;;;;15.36;48.58;102662.59;2012115;29;20014;-56
2023/03/28 05:18:44;;;;;;;;;;;;;;;15.35;48.49;102669.94;2033422;29;19966;-57
2023/03/28 05:19:47;;;;;;;;;;;;;;;15.35;48.38;102664.50;2025830;29;20430;-56
2023/03/28 05:20:53;;;;;;;;;;;;;;;15.36;48.65;102662.59;2017524;29;19986;-55
2023/03/28 05:21:55;;;;;;;;;;;;;;;15.35;48.65;102671.91;2017685;29;20398;-55
2023/03/28 05:22:58;;;;;;;;;;;;;;;15.34;48.62;102668.38;2030755;29;19958;-54
2023/03/28 05:24:03;;;;;;;;;;;;;;;15.34;48.78;102668.38;2016576;29;19923;-58
2023/03/28 05:25:07;;;;;;;;;;;;;;;15.35;48.65;102661.78;2017609;29;20033;-56
2023/03/28 05:26:12;;;;;;;;;;;;;;;15.34;48.69;102662.91;2028569;29;19930;-56
2023/03/28 05:27:16;;;;;;;;;;;;;;;15.34;48.60;102656.66;2030144;29;20022;-56
2023/03/28 05:28:20;;;;;;;;;;;;;;;15.34;48.54;102657.47;2025954;29;19935;-55
2023/03/28 05:29:25;;;;;;;;;;;;;;;15.34;48.43;102664.84;2025641;29;20449;-56
2023/03/28 05:30:28;;;;;;;;;;;;;;;15.34;48.48;102653.94;2017450;29;19924;-56
2023/03/28 05:31:32;;;;;;;;;;;;;;;15.34;48.64;102659.41;2019566;29;19939;-55
2023/03/28 05:32:54;;;;;;;;;;;;;;;15.33;48.70;102650.44;2026821;29;19927;-55
2023/03/28 05:33:56;;;;;;;;;;;;;;;15.33;48.72;102655.91;2023547;29;20698;-55
2023/03/28 05:35:11;;;;;;;;;;;;;;;15.33;48.67;102653.16;2028885;29;19935;-56
2023/03/28 05:36:12;;;;;;;;;;;;;;;15.34;48.55;102651.22;2024812;29;19927;-57
2023/03/28 05:37:16;;;;;;;;;;;;;;;15.33;48.54;102655.91;2017614;29;20025;-56
2023/03/28 05:38:23;;;;;;;;;;;;;;;15.32;48.42;102654.28;2028218;29;20316;-56
2023/03/28 05:39:30;;;;;;;;;;;;;;;15.33;48.52;102655.09;2022879;29;19931;-57
2023/03/28 05:40:36;;;;;;;;;;;;;;;15.33;48.73;102655.09;2024179;29;19931;-55
2023/03/28 05:41:39;;;;;;;;;;;;;;;15.33;48.66;102661.34;2024140;29;20852;-57
2023/03/28 05:42:41;;;;;;;;;;;;;;;15.31;48.66;102663.59;2025425;29;20071;-56
2023/03/28 05:43:49;;;;;;;;;;;;;;;15.33;48.50;102666.78;2024827;29;20456;-56
2023/03/28 05:45:03;;;;;;;;;;;;;;;15.32;48.67;102659.72;2028545;29;19966;-56
2023/03/28 05:46:18;;;;;;;;;;;;;;;15.32;48.51;102665.16;2033350;29;19993;-54
2023/03/28 05:47:21;;;;;;;;;;;;;;;15.32;48.50;102665.16;2030315;29;20875;-54
2023/03/28 05:48:24;;;;;;;;;;;;;;;15.33;48.58;102663.25;2023245;29;20002;-55
2023/03/28 05:49:26;;;;;;;;;;;;;;;15.32;48.38;102659.72;2024014;29;19958;-56
2023/03/28 05:50:28;;;;;;;;;;;;;;;15.32;48.58;102665.16;2018736;29;19935;-57